createdAt,value
2023-03-14T00:01:40.060Z,11.40
2023-03-14T00:04:07.925Z,11.30
2023-03-14T00:06:37.175Z,11.30
2023-03-14T00:09:05.161Z,11.30
2023-03-14T00:11:33.061Z,11.30
2023-03-14T00:14:01.498Z,11.30
2023-03-14T00:16:30.727Z,11.20
2023-03-14T00:19:00.379Z,11.20
2023-03-14T00:21:28.605Z,11.20
2023-03-14T00:23:56.663Z,11.20
2023-03-14T00:26:24.706Z,11.20
2023-03-14T00:28:54.544Z,11.20
2023-03-14T00:31:22.761Z,11.20
2023-03-14T00:33:54.542Z,11.30
2023-03-14T00:36:23.500Z,11.20
2023-03-14T00:38:52.765Z,11.30
2023-03-14T00:41:23.690Z,11.30
2023-03-14T00:43:51.947Z,11.20
2023-03-14T00:46:20.001Z,11.20
2023-03-14T00:48:49.595Z,11.20
2023-03-14T00:51:18.993Z,11.20
2023-03-14T00:53:47.455Z,11.20
2023-03-14T00:56:15.813Z,11.20
2023-03-14T00:58:44.017Z,11.20
2023-03-14T01:01:15.600Z,11.20
2023-03-14T01:03:43.668Z,11.20
2023-03-14T01:06:14.474Z,11.20
2023-03-14T01:08:44.071Z,11.20
2023-03-14T01:11:14.115Z,11.10
2023-03-14T01:13:42.282Z,11.10
2023-03-14T01:16:12.861Z,11.10
2023-03-14T01:18:42.046Z,11.10
2023-03-14T01:21:13.962Z,11.10
2023-03-14T01:23:44.019Z,11.10
2023-03-14T01:26:12.333Z,11.10
2023-03-14T01:28:40.734Z,11.10
2023-03-14T01:31:10.832Z,11.10
2023-03-14T01:33:39.676Z,11.10
2023-03-14T01:36:09.179Z,11.00
2023-03-14T01:38:39.028Z,11.00
2023-03-14T01:41:10.004Z,10.90
2023-03-14T01:43:37.903Z,10.80
2023-03-14T01:46:28.123Z,10.80
2023-03-14T01:49:00.762Z,10.70
2023-03-14T01:51:33.713Z,10.60
2023-03-14T01:54:10.487Z,10.50
2023-03-14T01:56:43.389Z,10.40
2023-03-14T01:59:12.874Z,10.40
2023-03-14T02:01:44.952Z,10.40
2023-03-14T02:04:13.768Z,10.30
2023-03-14T02:06:54.790Z,10.40
2023-03-14T02:09:23.164Z,10.40
2023-03-14T02:11:53.485Z,10.40
2023-03-14T02:14:32.026Z,10.40
2023-03-14T02:17:00.755Z,10.40
2023-03-14T02:19:48.266Z,10.40
2023-03-14T02:22:18.419Z,10.40
2023-03-14T02:24:57.243Z,10.40
2023-03-14T02:27:27.456Z,10.40
2023-03-14T02:29:58.578Z,10.40
2023-03-14T02:32:28.784Z,10.40
2023-03-14T02:34:59.092Z,10.40
2023-03-14T02:37:30.610Z,10.50
2023-03-14T02:39:58.570Z,10.50
2023-03-14T02:42:27.873Z,10.50
2023-03-14T02:45:01.465Z,10.40
2023-03-14T02:47:32.461Z,10.40
2023-03-14T02:50:06.520Z,10.40
2023-03-14T02:52:34.632Z,10.40
2023-03-14T02:55:02.518Z,10.40
2023-03-14T02:57:31.719Z,10.40
2023-03-14T03:00:00.983Z,10.40
2023-03-14T03:02:29.142Z,10.40
2023-03-14T03:04:56.997Z,10.30
2023-03-14T03:07:24.980Z,10.30
2023-03-14T03:09:52.892Z,10.30
2023-03-14T03:12:20.804Z,10.30
2023-03-14T03:14:50.621Z,10.30
2023-03-14T03:17:18.595Z,10.20
2023-03-14T03:19:46.484Z,10.20
2023-03-14T03:22:14.455Z,10.20
2023-03-14T03:24:42.448Z,10.20
2023-03-14T03:27:10.302Z,10.20
2023-03-14T03:29:38.236Z,10.10
2023-03-14T03:32:07.543Z,10.10
2023-03-14T03:34:36.081Z,10.10
2023-03-14T03:37:04.073Z,10.00
2023-03-14T03:39:31.970Z,10.10
2023-03-14T03:41:59.892Z,10.00
2023-03-14T03:44:27.876Z,10.10
2023-03-14T03:46:55.812Z,10.00
2023-03-14T03:49:25.091Z,10.00
2023-03-14T03:51:53.108Z,10.00
2023-03-14T03:54:21.050Z,10.10
2023-03-14T03:56:48.931Z,10.00
2023-03-14T03:59:16.860Z,10.10
2023-03-14T04:01:44.871Z,10.10
2023-03-14T04:04:12.881Z,10.10
2023-03-14T04:06:42.951Z,10.10
2023-03-14T04:09:11.148Z,10.10
2023-03-14T04:11:39.113Z,10.10
2023-03-14T04:14:07.767Z,10.10
2023-03-14T04:16:36.185Z,10.10
2023-03-14T04:19:04.680Z,10.10
2023-03-14T04:21:32.649Z,10.10
2023-03-14T04:24:01.856Z,10.10
2023-03-14T04:26:29.741Z,10.20
2023-03-14T04:28:57.704Z,10.20
2023-03-14T04:31:25.629Z,10.20
2023-03-14T04:33:53.696Z,10.20
2023-03-14T04:36:21.699Z,10.20
2023-03-14T04:38:49.618Z,10.20
2023-03-14T04:41:18.888Z,10.20
2023-03-14T04:43:46.823Z,10.10
2023-03-14T04:46:14.817Z,10.10
2023-03-14T04:48:43.012Z,10.10
2023-03-14T04:51:11.043Z,10.10
2023-03-14T04:53:38.949Z,10.10
2023-03-14T04:56:07.925Z,10.10
2023-03-14T04:58:37.287Z,10.10
2023-03-14T05:01:06.507Z,10.10
2023-03-14T05:03:34.428Z,10.00
2023-03-14T05:06:02.796Z,10.00
2023-03-14T05:08:30.681Z,10.00
2023-03-14T05:10:59.823Z,10.00
2023-03-14T05:13:27.828Z,9.90
2023-03-14T05:16:05.751Z,10.00
2023-03-14T05:18:33.734Z,9.90
2023-03-14T05:21:01.800Z,9.80
2023-03-14T05:23:30.082Z,9.80
2023-03-14T05:25:58.236Z,9.80
2023-03-14T05:28:26.207Z,9.80
2023-03-14T05:30:54.130Z,9.80
2023-03-14T05:33:23.467Z,9.70
2023-03-14T05:35:51.463Z,9.70
2023-03-14T05:38:19.847Z,9.70
2023-03-14T05:40:48.055Z,9.70
2023-03-14T05:43:17.009Z,9.60
2023-03-14T05:45:45.382Z,9.70
2023-03-14T05:48:13.592Z,9.60
2023-03-14T05:50:42.888Z,9.60
2023-03-14T05:53:10.781Z,9.60
2023-03-14T05:55:38.656Z,9.60
2023-03-14T05:58:06.497Z,9.60
2023-03-14T06:00:34.510Z,9.70
2023-03-14T06:03:02.458Z,9.70
2023-03-14T06:05:30.506Z,9.70
2023-03-14T06:07:59.925Z,9.70
2023-03-14T06:10:27.889Z,9.70
2023-03-14T06:12:55.821Z,9.60
2023-03-14T06:15:23.804Z,9.60
2023-03-14T06:17:51.626Z,9.50
2023-03-14T06:20:19.634Z,9.30
2023-03-14T06:22:47.529Z,9.20
2023-03-14T06:25:16.897Z,9.10
2023-03-14T06:27:44.743Z,8.90
2023-03-14T06:30:13.518Z,8.70
2023-03-14T06:32:41.502Z,8.50
2023-03-14T06:35:10.175Z,8.40
2023-03-14T06:37:38.135Z,8.20
2023-03-14T06:40:08.229Z,8.20
2023-03-14T06:42:37.523Z,8.00
2023-03-14T06:45:06.324Z,8.00
2023-03-14T06:47:34.336Z,7.90
2023-03-14T06:50:02.192Z,7.90
2023-03-14T06:52:30.147Z,7.80
2023-03-14T06:54:58.054Z,7.70
2023-03-14T06:57:26.054Z,7.70
2023-03-14T06:59:55.324Z,7.70
2023-03-14T07:02:36.089Z,7.70
2023-03-14T07:05:11.239Z,7.60
2023-03-14T07:07:39.162Z,7.60
2023-03-14T07:10:09.771Z,7.60
2023-03-14T07:12:37.872Z,7.50
2023-03-14T07:17:56.159Z,7.40
2023-03-14T07:20:24.391Z,7.30
2023-03-14T07:22:52.775Z,7.10
2023-03-14T07:25:20.759Z,6.70
2023-03-14T07:27:48.957Z,6.40
2023-03-14T07:30:18.695Z,6.20
2023-03-14T07:32:46.693Z,6.10
2023-03-14T07:35:14.675Z,6.00
2023-03-14T07:37:42.627Z,5.90
2023-03-14T07:40:13.618Z,5.90
2023-03-14T07:42:41.538Z,5.80
2023-03-14T07:45:10.528Z,5.70
2023-03-14T07:47:39.877Z,5.70
2023-03-14T07:50:09.021Z,5.60
2023-03-14T07:52:36.978Z,5.60
2023-03-14T07:55:05.226Z,5.50
2023-03-14T07:57:33.194Z,5.50
2023-03-14T08:00:01.091Z,5.40
2023-03-14T08:02:29.081Z,5.40
2023-03-14T08:04:58.363Z,5.50
2023-03-14T08:07:26.311Z,5.40
2023-03-14T08:09:54.264Z,5.40
2023-03-14T08:12:22.192Z,5.30
2023-03-14T08:14:50.134Z,5.40
2023-03-14T08:17:18.044Z,5.50
2023-03-14T08:19:46.104Z,5.60
2023-03-14T08:22:16.657Z,5.50
2023-03-14T08:24:45.750Z,5.60
2023-03-14T08:27:15.362Z,5.60
2023-03-14T08:29:44.627Z,5.70
2023-03-14T08:32:12.879Z,5.70
2023-03-14T08:34:40.977Z,5.80
2023-03-14T08:37:23.479Z,5.80
2023-03-14T08:39:55.884Z,5.90
2023-03-14T08:42:23.817Z,5.90
2023-03-14T08:44:52.613Z,5.90
2023-03-14T08:47:20.585Z,5.80
2023-03-14T08:49:48.498Z,5.80
2023-03-14T08:52:17.212Z,5.80
2023-03-14T08:54:45.900Z,5.80
2023-03-14T08:57:15.345Z,5.80
2023-03-14T08:59:43.301Z,5.90
2023-03-14T09:02:13.621Z,5.90
2023-03-14T09:04:41.861Z,5.90
2023-03-14T09:07:09.745Z,5.90
2023-03-14T09:09:37.693Z,5.90
2023-03-14T09:12:06.797Z,6.00
2023-03-14T09:14:36.201Z,6.00
2023-03-14T09:17:06.302Z,6.00
2023-03-14T09:19:34.174Z,6.10
2023-03-14T09:22:02.053Z,6.20
2023-03-14T09:24:30.121Z,6.20
2023-03-14T09:26:58.502Z,6.20
2023-03-14T09:29:26.605Z,6.30
2023-03-14T09:31:55.903Z,6.30
2023-03-14T09:34:23.861Z,6.40
2023-03-14T09:36:51.763Z,6.50
2023-03-14T09:39:19.701Z,6.50
2023-03-14T09:41:50.864Z,6.50
2023-03-14T09:44:23.175Z,6.50
2023-03-14T09:46:56.756Z,6.40
2023-03-14T09:49:28.104Z,6.30
2023-03-14T09:51:58.760Z,6.20
2023-03-14T09:54:35.362Z,6.10
2023-03-14T09:57:03.756Z,6.10
2023-03-14T09:59:32.379Z,6.10
2023-03-14T10:02:03.948Z,6.20
2023-03-14T10:04:33.960Z,6.20
2023-03-14T10:07:04.343Z,6.30
2023-03-14T10:09:32.955Z,6.40
2023-03-14T10:12:01.885Z,6.40
2023-03-14T10:14:35.596Z,6.50
2023-03-14T10:17:15.239Z,6.50
2023-03-14T10:19:54.439Z,6.60
2023-03-14T10:22:24.897Z,6.50
2023-03-14T10:24:56.966Z,6.40
2023-03-14T10:27:30.840Z,6.50
2023-03-14T10:30:01.292Z,6.50
2023-03-14T10:32:38.041Z,6.40
2023-03-14T10:35:09.865Z,6.50
2023-03-14T10:37:38.189Z,6.60
2023-03-14T10:40:08.232Z,6.60
2023-03-14T10:42:41.142Z,6.60
2023-03-14T10:45:30.135Z,6.70
2023-03-14T10:48:01.915Z,6.80
2023-03-14T10:50:33.186Z,6.90
2023-03-14T10:53:06.420Z,6.90
2023-03-14T10:55:43.249Z,7.00
2023-03-14T10:58:23.351Z,7.00
2023-03-14T11:00:59.908Z,7.00
2023-03-14T11:03:33.656Z,7.00
2023-03-14T11:06:08.853Z,7.00
2023-03-14T11:08:43.557Z,7.00
2023-03-14T11:11:20.088Z,7.20
2023-03-14T11:14:03.850Z,7.20
2023-03-14T11:16:42.972Z,7.30
2023-03-14T11:19:35.226Z,7.40
2023-03-14T11:22:11.405Z,7.30
2023-03-14T11:24:50.532Z,7.30
2023-03-14T11:27:20.805Z,7.20
2023-03-14T11:29:56.590Z,7.30
2023-03-14T11:32:36.983Z,7.30
2023-03-14T11:35:17.996Z,7.40
2023-03-14T11:37:49.674Z,7.50
2023-03-14T11:40:21.566Z,7.60
2023-03-14T11:42:56.439Z,7.60
2023-03-14T11:45:31.335Z,7.60
2023-03-14T11:48:16.229Z,7.70
2023-03-14T11:50:48.196Z,7.60
2023-03-14T11:53:20.297Z,7.60
2023-03-14T11:55:50.903Z,7.60
2023-03-14T11:58:22.838Z,7.60
2023-03-14T12:00:53.597Z,7.60
2023-03-14T12:03:32.588Z,7.50
2023-03-14T12:06:14.447Z,7.50
2023-03-14T12:08:48.464Z,7.50
2023-03-14T12:11:35.905Z,7.50
2023-03-14T12:14:04.324Z,7.50
2023-03-14T12:16:41.090Z,7.50
2023-03-14T12:19:37.500Z,7.40
2023-03-14T12:22:22.366Z,7.40
2023-03-14T12:24:54.790Z,7.30
2023-03-14T12:28:10.866Z,7.40
2023-03-14T12:30:40.650Z,7.50
2023-03-14T12:33:31.510Z,7.50
2023-03-14T12:36:04.883Z,7.60
2023-03-14T12:38:49.196Z,7.70
2023-03-14T12:41:21.821Z,7.70
2023-03-14T12:43:49.855Z,7.70
2023-03-14T12:46:23.693Z,7.70
2023-03-14T12:48:55.734Z,7.80
2023-03-14T12:51:32.078Z,7.70
2023-03-14T12:54:28.576Z,7.70
2023-03-14T12:57:22.965Z,7.70
2023-03-14T12:59:54.133Z,7.70
2023-03-14T13:02:28.603Z,7.70
2023-03-14T13:05:12.119Z,7.70
2023-03-14T13:08:05.999Z,7.60
2023-03-14T13:10:44.205Z,7.70
2023-03-14T13:13:21.397Z,7.60
2023-03-14T13:15:52.197Z,7.70
2023-03-14T13:18:29.155Z,7.70
2023-03-14T13:21:01.173Z,7.60
2023-03-14T13:23:30.782Z,7.60
2023-03-14T13:26:02.574Z,7.50
2023-03-14T13:28:32.745Z,7.50
2023-03-14T13:31:03.033Z,7.50
2023-03-14T13:33:32.567Z,7.60
2023-03-14T13:36:03.607Z,7.60
2023-03-14T13:38:33.792Z,7.70
2023-03-14T13:41:07.045Z,7.70
2023-03-14T13:43:38.097Z,7.60
2023-03-14T13:46:08.096Z,7.60
2023-03-14T13:48:41.532Z,7.50
2023-03-14T13:51:13.910Z,7.60
2023-03-14T13:53:46.159Z,7.60
2023-03-14T13:56:15.889Z,7.60
2023-03-14T13:58:44.197Z,7.50
2023-03-14T14:01:18.672Z,7.60
2023-03-14T14:03:52.175Z,7.60
2023-03-14T14:06:30.921Z,7.60
2023-03-14T14:09:01.325Z,7.60
2023-03-14T14:11:53.702Z,7.40
2023-03-14T14:14:33.626Z,7.30
2023-03-14T14:17:03.231Z,7.20
2023-03-14T14:19:34.309Z,7.20
2023-03-14T14:22:02.937Z,7.30
2023-03-14T14:24:33.266Z,7.30
2023-03-14T14:27:09.398Z,7.20
2023-03-14T14:29:37.415Z,7.30
2023-03-14T14:32:13.274Z,7.30
2023-03-14T14:34:43.587Z,7.10
2023-03-14T14:37:25.150Z,7.10
2023-03-14T14:39:56.393Z,7.10
2023-03-14T14:42:29.137Z,7.00
2023-03-14T14:44:58.839Z,7.20
2023-03-14T14:47:29.397Z,7.20
2023-03-14T14:50:02.147Z,7.30
2023-03-14T14:52:38.795Z,7.30
2023-03-14T14:55:14.979Z,7.30
2023-03-14T14:57:51.023Z,7.20
2023-03-14T15:00:22.110Z,7.10
2023-03-14T15:02:54.893Z,7.00
2023-03-14T15:05:25.340Z,7.10
2023-03-14T15:07:53.736Z,7.10
2023-03-14T15:10:23.810Z,7.10
2023-03-14T15:12:53.699Z,7.10
2023-03-14T15:15:21.817Z,7.10
2023-03-14T15:17:49.914Z,7.10
2023-03-14T15:20:20.256Z,7.10
2023-03-14T15:22:48.378Z,7.10
2023-03-14T15:25:40.001Z,7.10
2023-03-14T15:28:07.102Z,7.10
2023-03-14T15:30:34.962Z,7.00
2023-03-14T15:33:02.963Z,7.00
2023-03-14T15:35:30.886Z,7.00
2023-03-14T15:37:58.799Z,7.10
2023-03-14T15:40:30.413Z,7.20
2023-03-14T15:42:58.863Z,7.10
2023-03-14T15:45:28.211Z,7.10
2023-03-14T15:47:56.274Z,7.10
2023-03-14T15:50:26.253Z,7.10
2023-03-14T15:52:54.457Z,7.10
2023-03-14T15:55:22.362Z,7.10
2023-03-14T15:57:50.923Z,7.10
2023-03-14T16:00:22.460Z,7.10
2023-03-14T16:02:51.856Z,7.10
2023-03-14T16:05:21.002Z,7.00
2023-03-14T16:07:49.294Z,7.00
2023-03-14T16:10:17.924Z,6.90
2023-03-14T16:12:46.119Z,6.90
2023-03-14T16:15:14.034Z,6.90
2023-03-14T16:17:44.217Z,6.80
2023-03-14T16:20:13.984Z,6.70
2023-03-14T16:22:44.888Z,6.70
2023-03-14T16:25:13.417Z,6.70
2023-03-14T16:27:42.634Z,6.70
2023-03-14T16:30:12.363Z,6.70
2023-03-14T16:32:40.272Z,6.70
2023-03-14T16:35:08.983Z,6.70
2023-03-14T16:37:38.158Z,6.80
2023-03-14T16:40:12.515Z,6.80
2023-03-14T16:43:05.216Z,6.80
2023-03-14T16:45:30.320Z,6.80
2023-03-14T16:47:58.304Z,6.80
2023-03-14T16:50:26.235Z,6.90
2023-03-14T16:52:56.223Z,6.80
2023-03-14T16:55:24.304Z,6.80
2023-03-14T16:57:52.185Z,6.80
2023-03-14T17:00:21.152Z,6.70
2023-03-14T17:02:49.077Z,6.70
2023-03-14T17:05:17.103Z,6.60
2023-03-14T17:07:44.975Z,6.50
2023-03-14T17:10:14.277Z,6.40
2023-03-14T17:12:42.181Z,6.40
2023-03-14T17:15:11.191Z,6.40
2023-03-14T17:17:39.349Z,6.40
2023-03-14T17:20:09.250Z,6.40
2023-03-14T17:22:37.425Z,6.40
2023-03-14T17:25:06.048Z,6.30
2023-03-14T17:27:36.192Z,6.30
2023-03-14T17:30:04.596Z,6.30
2023-03-14T17:32:32.668Z,6.20
2023-03-14T17:35:00.566Z,6.20
2023-03-14T17:37:28.454Z,6.10
2023-03-14T17:39:56.487Z,6.10
2023-03-14T17:42:24.329Z,6.10
2023-03-14T17:44:53.584Z,6.10
2023-03-14T17:47:21.450Z,6.10
2023-03-14T17:49:49.349Z,6.10
2023-03-14T17:52:17.239Z,6.00
2023-03-14T17:54:45.190Z,6.00
2023-03-14T17:57:13.330Z,6.00
2023-03-14T17:59:42.672Z,5.90
2023-03-14T18:02:12.490Z,5.90
2023-03-14T18:04:40.507Z,5.90
2023-03-14T18:07:08.443Z,5.90
2023-03-14T18:09:36.374Z,5.90
2023-03-14T18:12:08.395Z,5.90
2023-03-14T18:14:37.362Z,5.90
2023-03-14T18:17:05.652Z,5.80
2023-03-14T18:19:34.928Z,5.80
2023-03-14T18:22:02.818Z,5.80
2023-03-14T18:24:30.867Z,5.80
2023-03-14T18:26:58.769Z,5.80
2023-03-14T18:29:26.780Z,5.80
2023-03-14T18:31:55.630Z,5.80
2023-03-14T18:34:23.700Z,5.80
2023-03-14T18:36:53.363Z,5.80
2023-03-14T18:39:21.510Z,5.80
2023-03-14T18:41:49.363Z,5.70
2023-03-14T18:44:17.295Z,5.70
2023-03-14T18:46:45.581Z,5.70
2023-03-14T18:49:14.004Z,5.70
2023-03-14T18:51:43.342Z,5.70
2023-03-14T18:54:12.684Z,5.70
2023-03-14T18:56:41.589Z,5.70
2023-03-14T18:59:10.604Z,5.70
2023-03-14T19:01:38.892Z,5.70
2023-03-14T19:04:09.558Z,5.70
2023-03-14T19:06:38.897Z,5.70
2023-03-14T19:09:09.030Z,5.70
2023-03-14T19:11:38.309Z,5.70
2023-03-14T19:14:06.211Z,5.60
2023-03-14T19:16:34.235Z,5.70
2023-03-14T19:19:02.224Z,5.70
2023-03-14T19:21:34.206Z,5.60
2023-03-14T19:24:03.265Z,5.60
2023-03-14T19:26:32.522Z,5.60
2023-03-14T19:29:01.892Z,5.60
2023-03-14T19:31:30.068Z,5.60
2023-03-14T19:33:58.739Z,5.60
2023-03-14T19:36:28.489Z,5.60
2023-03-14T19:38:57.086Z,5.60
2023-03-14T19:41:26.258Z,5.60
2023-03-14T19:43:54.673Z,5.60
2023-03-14T19:46:24.618Z,5.60
2023-03-14T19:48:54.702Z,5.60
2023-03-14T19:51:23.131Z,5.60
2023-03-14T19:53:51.675Z,5.70
2023-03-14T19:56:20.667Z,5.70
2023-03-14T19:58:48.798Z,5.70
2023-03-14T20:01:16.796Z,5.60
2023-03-14T20:03:46.289Z,5.50
2023-03-14T20:06:14.465Z,5.50
2023-03-14T20:08:43.627Z,5.40
2023-03-14T20:11:11.803Z,5.30
2023-03-14T20:13:39.755Z,5.20
2023-03-14T20:16:10.408Z,5.10
2023-03-14T20:18:39.130Z,5.10
2023-03-14T20:21:10.073Z,5.10
2023-03-14T20:23:37.953Z,5.10
2023-03-14T20:26:06.314Z,5.10
2023-03-14T20:28:34.192Z,5.10
2023-03-14T20:31:02.208Z,5.10
2023-03-14T20:33:30.253Z,5.10
2023-03-14T20:36:00.561Z,5.10
2023-03-14T20:38:31.062Z,5.10
2023-03-14T20:40:59.862Z,5.20
2023-03-14T20:43:28.513Z,5.20
2023-03-14T20:45:58.051Z,5.20
2023-03-14T20:48:26.883Z,5.20
2023-03-14T20:50:55.294Z,5.20
2023-03-14T20:53:24.582Z,5.20
2023-03-14T20:55:56.769Z,5.20
2023-03-14T20:58:25.327Z,5.20
2023-03-14T21:00:55.807Z,5.30
2023-03-14T21:03:24.160Z,5.30
2023-03-14T21:05:52.428Z,5.30
2023-03-14T21:08:21.616Z,5.30
2023-03-14T21:10:50.129Z,5.30
2023-03-14T21:13:19.645Z,5.40
2023-03-14T21:15:47.801Z,5.40
2023-03-14T21:18:16.030Z,5.40
2023-03-14T21:20:44.525Z,5.50
2023-03-14T21:23:13.075Z,5.50
2023-03-14T21:25:43.430Z,5.50
2023-03-14T21:28:12.552Z,5.50
2023-03-14T21:30:42.344Z,5.40
2023-03-14T21:33:11.330Z,5.30
2023-03-14T21:35:39.213Z,5.10
2023-03-14T21:38:07.120Z,5.10
2023-03-14T21:40:35.104Z,5.10
2023-03-14T21:43:02.957Z,5.00
2023-03-14T21:45:31.255Z,5.10
2023-03-14T21:48:02.364Z,5.10
2023-03-14T21:50:30.323Z,5.10
2023-03-14T21:52:58.189Z,5.10
2023-03-14T21:55:26.860Z,5.00
2023-03-14T21:57:56.344Z,5.00
2023-03-14T22:00:26.318Z,4.90
2023-03-14T22:03:11.730Z,4.90
2023-03-14T22:05:44.852Z,4.80
2023-03-14T22:08:13.407Z,4.70
2023-03-14T22:10:45.339Z,4.60
2023-03-14T22:13:13.450Z,4.60
2023-03-14T22:15:41.303Z,4.50
2023-03-14T22:18:09.182Z,4.40
2023-03-14T22:20:37.158Z,4.30
2023-03-14T22:23:06.389Z,4.20
2023-03-14T22:25:34.298Z,4.10
2023-03-14T22:28:02.251Z,4.10
2023-03-14T22:30:30.547Z,4.10
2023-03-14T22:32:58.501Z,4.10
2023-03-14T22:35:26.491Z,4.20
2023-03-14T22:37:54.364Z,4.20
2023-03-14T22:40:23.703Z,4.20
2023-03-14T22:42:53.582Z,4.20
2023-03-14T22:45:21.900Z,4.20
2023-03-14T22:47:49.908Z,4.30
2023-03-14T22:50:18.007Z,4.30
2023-03-14T22:52:45.885Z,4.20
2023-03-14T22:55:13.728Z,4.20
2023-03-14T22:57:43.147Z,4.20
2023-03-14T23:00:13.881Z,4.10
2023-03-14T23:02:42.311Z,4.10
2023-03-14T23:05:11.112Z,4.00
2023-03-14T23:07:38.957Z,3.90
2023-03-14T23:10:08.051Z,3.90
2023-03-14T23:12:36.058Z,3.90
2023-03-14T23:15:07.174Z,3.90
2023-03-14T23:17:35.386Z,3.80
2023-03-14T23:20:06.517Z,3.80
2023-03-14T23:22:34.674Z,3.80
2023-03-14T23:25:03.721Z,3.80
2023-03-14T23:27:32.056Z,3.80
2023-03-14T23:30:00.150Z,3.70
2023-03-14T23:32:29.508Z,3.70
2023-03-14T23:34:57.496Z,3.70
2023-03-14T23:37:25.875Z,3.70
2023-03-14T23:39:53.895Z,3.70
2023-03-14T23:42:21.903Z,3.70
2023-03-14T23:44:49.784Z,3.70
2023-03-14T23:47:17.646Z,3.70
2023-03-14T23:49:46.830Z,3.70
2023-03-14T23:52:14.760Z,3.70
2023-03-14T23:54:42.668Z,3.70
2023-03-14T23:57:10.795Z,3.80
2023-03-14T23:59:39.322Z,3.80
